sensor_id;sensor_type;location;lat;lon;timestamp;temperature;humidity
23560;DHT22;11958;50.836;4.438;2023-07-20T00:11:21;17.20;85.20
23560;DHT22;11958;50.836;4.438;2023-07-20T00:16:22;17.30;84.80
23560;DHT22;11958;50.836;4.438;2023-07-20T00:19:06;17.40;84.80
23560;DHT22;11958;50.836;4.438;2023-07-20T00:22:01;17.20;84.70
23560;DHT22;11958;50.836;4.438;2023-07-20T00:24:27;17.20;85.10
23560;DHT22;11958;50.836;4.438;2023-07-20T00:26:53;17.40;85.00
23560;DHT22;11958;50.836;4.438;2023-07-20T00:29:21;17.70;84.80
23560;DHT22;11958;50.836;4.438;2023-07-20T00:35:07;17.30;84.50
23560;DHT22;11958;50.836;4.438;2023-07-20T00:37:41;17.30;84.20
23560;DHT22;11958;50.836;4.438;2023-07-20T00:43:24;17.10;85.20
23560;DHT22;11958;50.836;4.438;2023-07-20T00:45:50;17.40;85.20
23560;DHT22;11958;50.836;4.438;2023-07-20T00:48:26;17.40;85.10
23560;DHT22;11958;50.836;4.438;2023-07-20T00:51:10;17.00;85.40
23560;DHT22;11958;50.836;4.438;2023-07-20T00:53:36;17.30;85.80
23560;DHT22;11958;50.836;4.438;2023-07-20T00:56:11;17.20;85.60
23560;DHT22;11958;50.836;4.438;2023-07-20T00:58:37;17.10;86.40
23560;DHT22;11958;50.836;4.438;2023-07-20T01:01:18;17.30;85.10
23560;DHT22;11958;50.836;4.438;2023-07-20T01:03:52;17.20;85.80
23560;DHT22;11958;50.836;4.438;2023-07-20T01:06:39;17.40;85.40
23560;DHT22;11958;50.836;4.438;2023-07-20T01:09:29;17.50;84.90
23560;DHT22;11958;50.836;4.438;2023-07-20T01:14:37;17.30;85.40
23560;DHT22;11958;50.836;4.438;2023-07-20T01:17:04;17.10;86.00
23560;DHT22;11958;50.836;4.438;2023-07-20T01:19:30;16.90;85.40
23560;DHT22;11958;50.836;4.438;2023-07-20T01:25:11;16.90;86.80
23560;DHT22;11958;50.836;4.438;2023-07-20T01:30:50;17.30;85.90
23560;DHT22;11958;50.836;4.438;2023-07-20T01:34:05;17.10;85.20
23560;DHT22;11958;50.836;4.438;2023-07-20T01:36:24;17.00;85.00
23560;DHT22;11958;50.836;4.438;2023-07-20T01:38:51;16.90;86.20
23560;DHT22;11958;50.836;4.438;2023-07-20T01:41:18;17.00;86.80
23560;DHT22;11958;50.836;4.438;2023-07-20T01:43:44;17.00;86.10
23560;DHT22;11958;50.836;4.438;2023-07-20T01:46:10;17.20;85.90
23560;DHT22;11958;50.836;4.438;2023-07-20T01:48:35;17.30;84.90
23560;DHT22;11958;50.836;4.438;2023-07-20T01:51:01;17.20;85.00
23560;DHT22;11958;50.836;4.438;2023-07-20T01:53:27;17.00;85.60
23560;DHT22;11958;50.836;4.438;2023-07-20T01:55:57;17.10;86.20
23560;DHT22;11958;50.836;4.438;2023-07-20T01:58:23;17.10;85.20
23560;DHT22;11958;50.836;4.438;2023-07-20T02:00:48;17.30;85.90
23560;DHT22;11958;50.836;4.438;2023-07-20T02:03:14;17.40;85.00
23560;DHT22;11958;50.836;4.438;2023-07-20T02:05:42;17.10;86.10
23560;DHT22;11958;50.836;4.438;2023-07-20T02:08:08;17.10;86.30
23560;DHT22;11958;50.836;4.438;2023-07-20T02:10:36;17.30;86.20
23560;DHT22;11958;50.836;4.438;2023-07-20T02:13:02;17.30;85.70
23560;DHT22;11958;50.836;4.438;2023-07-20T02:15:28;17.30;85.50
23560;DHT22;11958;50.836;4.438;2023-07-20T02:17:54;17.40;85.20
23560;DHT22;11958;50.836;4.438;2023-07-20T02:20:20;17.40;84.70
23560;DHT22;11958;50.836;4.438;2023-07-20T02:22:46;17.40;86.00
23560;DHT22;11958;50.836;4.438;2023-07-20T02:25:12;17.30;86.70
23560;DHT22;11958;50.836;4.438;2023-07-20T02:27:38;17.60;86.10
23560;DHT22;11958;50.836;4.438;2023-07-20T02:30:05;17.40;85.60
23560;DHT22;11958;50.836;4.438;2023-07-20T02:32:32;17.20;86.20
23560;DHT22;11958;50.836;4.438;2023-07-20T02:34:58;17.30;86.30
23560;DHT22;11958;50.836;4.438;2023-07-20T02:37:24;17.40;85.70
23560;DHT22;11958;50.836;4.438;2023-07-20T02:39:50;17.10;85.90
23560;DHT22;11958;50.836;4.438;2023-07-20T02:42:16;17.30;85.30
23560;DHT22;11958;50.836;4.438;2023-07-20T02:44:41;17.10;85.60
23560;DHT22;11958;50.836;4.438;2023-07-20T02:47:07;17.00;85.30
23560;DHT22;11958;50.836;4.438;2023-07-20T02:49:33;17.50;85.70
23560;DHT22;11958;50.836;4.438;2023-07-20T02:51:58;17.10;86.20
23560;DHT22;11958;50.836;4.438;2023-07-20T02:54:24;17.20;86.20
23560;DHT22;11958;50.836;4.438;2023-07-20T02:56:50;16.90;85.50
23560;DHT22;11958;50.836;4.438;2023-07-20T02:59:15;16.80;86.40
23560;DHT22;11958;50.836;4.438;2023-07-20T03:12:08;17.20;86.40
23560;DHT22;11958;50.836;4.438;2023-07-20T03:28:44;17.00;86.60
23560;DHT22;11958;50.836;4.438;2023-07-20T03:34:44;17.00;86.80
23560;DHT22;11958;50.836;4.438;2023-07-20T03:37:14;17.20;85.90
23560;DHT22;11958;50.836;4.438;2023-07-20T04:13:27;17.40;85.90
23560;DHT22;11958;50.836;4.438;2023-07-20T04:29:24;17.40;85.80
23560;DHT22;11958;50.836;4.438;2023-07-20T04:31:55;17.40;86.60
23560;DHT22;11958;50.836;4.438;2023-07-20T05:08:09;18.20;83.40
23560;DHT22;11958;50.836;4.438;2023-07-20T05:19:40;17.80;86.30
23560;DHT22;11958;50.836;4.438;2023-07-20T05:22:15;18.10;85.50
23560;DHT22;11958;50.836;4.438;2023-07-20T05:24:41;17.90;86.40
23560;DHT22;11958;50.836;4.438;2023-07-20T05:27:07;18.10;85.40
23560;DHT22;11958;50.836;4.438;2023-07-20T05:29:32;18.00;85.90
23560;DHT22;11958;50.836;4.438;2023-07-20T05:31:58;18.10;86.00
23560;DHT22;11958;50.836;4.438;2023-07-20T05:34:24;18.00;86.10
23560;DHT22;11958;50.836;4.438;2023-07-20T05:36:49;18.30;83.10
23560;DHT22;11958;50.836;4.438;2023-07-20T05:39:17;18.30;82.40
23560;DHT22;11958;50.836;4.438;2023-07-20T05:41:43;18.30;82.80
23560;DHT22;11958;50.836;4.438;2023-07-20T05:46:44;18.30;83.40
23560;DHT22;11958;50.836;4.438;2023-07-20T05:52:33;18.60;82.10
23560;DHT22;11958;50.836;4.438;2023-07-20T05:54:59;18.50;82.40
23560;DHT22;11958;50.836;4.438;2023-07-20T05:57:25;18.50;81.50
23560;DHT22;11958;50.836;4.438;2023-07-20T05:59:50;18.60;81.20
23560;DHT22;11958;50.836;4.438;2023-07-20T06:02:16;18.60;80.80
23560;DHT22;11958;50.836;4.438;2023-07-20T06:04:42;18.40;81.40
23560;DHT22;11958;50.836;4.438;2023-07-20T06:07:08;18.30;81.80
23560;DHT22;11958;50.836;4.438;2023-07-20T06:09:34;18.30;82.60
23560;DHT22;11958;50.836;4.438;2023-07-20T06:12:00;18.30;83.50
23560;DHT22;11958;50.836;4.438;2023-07-20T06:14:25;18.50;82.60
23560;DHT22;11958;50.836;4.438;2023-07-20T06:16:51;18.60;82.10
23560;DHT22;11958;50.836;4.438;2023-07-20T06:19:17;18.60;82.40
23560;DHT22;11958;50.836;4.438;2023-07-20T06:21:43;18.80;81.60
23560;DHT22;11958;50.836;4.438;2023-07-20T06:24:17;19.00;80.20
23560;DHT22;11958;50.836;4.438;2023-07-20T06:26:43;18.70;80.80
23560;DHT22;11958;50.836;4.438;2023-07-20T06:29:09;18.80;81.80
23560;DHT22;11958;50.836;4.438;2023-07-20T06:31:35;18.90;80.80
23560;DHT22;11958;50.836;4.438;2023-07-20T06:34:01;18.70;79.10
23560;DHT22;11958;50.836;4.438;2023-07-20T06:36:28;18.50;80.20
23560;DHT22;11958;50.836;4.438;2023-07-20T06:38:54;18.80;80.60
23560;DHT22;11958;50.836;4.438;2023-07-20T06:41:20;19.00;79.50
23560;DHT22;11958;50.836;4.438;2023-07-20T06:43:46;19.20;79.30
23560;DHT22;11958;50.836;4.438;2023-07-20T06:46:12;19.40;78.80
23560;DHT22;11958;50.836;4.438;2023-07-20T06:48:38;19.30;79.50
23560;DHT22;11958;50.836;4.438;2023-07-20T06:58:52;19.50;77.30
23560;DHT22;11958;50.836;4.438;2023-07-20T07:10:38;19.90;74.90
23560;DHT22;11958;50.836;4.438;2023-07-20T07:13:16;19.70;74.90
23560;DHT22;11958;50.836;4.438;2023-07-20T07:16:01;19.80;75.60
23560;DHT22;11958;50.836;4.438;2023-07-20T07:18:49;19.60;75.30
23560;DHT22;11958;50.836;4.438;2023-07-20T07:28:36;20.20;73.40
23560;DHT22;11958;50.836;4.438;2023-07-20T08:19:43;21.30;61.00
23560;DHT22;11958;50.836;4.438;2023-07-20T08:22:12;21.40;60.70
23560;DHT22;11958;50.836;4.438;2023-07-20T08:34:59;20.90;63.80
23560;DHT22;11958;50.836;4.438;2023-07-20T08:43:58;20.60;61.50
23560;DHT22;11958;50.836;4.438;2023-07-20T08:52:51;21.70;60.10
23560;DHT22;11958;50.836;4.438;2023-07-20T09:27:49;23.00;54.30
23560;DHT22;11958;50.836;4.438;2023-07-20T09:30:16;23.10;48.90
23560;DHT22;11958;50.836;4.438;2023-07-20T09:33:00;22.50;51.50
23560;DHT22;11958;50.836;4.438;2023-07-20T09:35:33;22.30;51.60
23560;DHT22;11958;50.836;4.438;2023-07-20T10:29:51;24.40;44.10
23560;DHT22;11958;50.836;4.438;2023-07-20T10:32:41;24.50;46.10
23560;DHT22;11958;50.836;4.438;2023-07-20T11:09:56;23.10;47.40
23560;DHT22;11958;50.836;4.438;2023-07-20T11:12:27;23.00;49.60
23560;DHT22;11958;50.836;4.438;2023-07-20T11:18:19;23.30;47.00
23560;DHT22;11958;50.836;4.438;2023-07-20T11:23:53;23.50;46.60
23560;DHT22;11958;50.836;4.438;2023-07-20T11:29:45;24.00;44.00
23560;DHT22;11958;50.836;4.438;2023-07-20T11:39:59;23.90;43.60
23560;DHT22;11958;50.836;4.438;2023-07-20T11:45:09;24.50;43.10
23560;DHT22;11958;50.836;4.438;2023-07-20T11:47:53;24.10;42.80
23560;DHT22;11958;50.836;4.438;2023-07-20T11:58:55;23.40;45.10
23560;DHT22;11958;50.836;4.438;2023-07-20T12:01:25;23.40;45.30
23560;DHT22;11958;50.836;4.438;2023-07-20T12:10:11;24.30;44.60
23560;DHT22;11958;50.836;4.438;2023-07-20T12:24:52;24.60;40.40
23560;DHT22;11958;50.836;4.438;2023-07-20T12:30:38;24.30;41.70
23560;DHT22;11958;50.836;4.438;2023-07-20T12:33:05;24.50;41.00
23560;DHT22;11958;50.836;4.438;2023-07-20T12:35:31;24.50;41.10
23560;DHT22;11958;50.836;4.438;2023-07-20T12:37:58;24.70;42.30
23560;DHT22;11958;50.836;4.438;2023-07-20T12:40:24;25.40;39.20
23560;DHT22;11958;50.836;4.438;2023-07-20T12:42:50;26.10;38.30
23560;DHT22;11958;50.836;4.438;2023-07-20T12:45:16;27.20;36.50
23560;DHT22;11958;50.836;4.438;2023-07-20T12:47:41;27.90;36.40
23560;DHT22;11958;50.836;4.438;2023-07-20T12:50:12;28.30;36.60
23560;DHT22;11958;50.836;4.438;2023-07-20T12:52:39;27.40;35.50
23560;DHT22;11958;50.836;4.438;2023-07-20T12:55:06;26.60;36.20
23560;DHT22;11958;50.836;4.438;2023-07-20T12:57:34;26.20;39.00
23560;DHT22;11958;50.836;4.438;2023-07-20T13:00:05;25.30;41.50
23560;DHT22;11958;50.836;4.438;2023-07-20T13:02:33;25.00;43.40
23560;DHT22;11958;50.836;4.438;2023-07-20T13:05:16;24.70;44.10
23560;DHT22;11958;50.836;4.438;2023-07-20T13:07:42;24.80;44.90
23560;DHT22;11958;50.836;4.438;2023-07-20T13:10:10;24.60;43.40
23560;DHT22;11958;50.836;4.438;2023-07-20T13:12:36;24.70;41.30
23560;DHT22;11958;50.836;4.438;2023-07-20T13:15:04;24.40;41.90
23560;DHT22;11958;50.836;4.438;2023-07-20T13:17:43;24.30;42.40
23560;DHT22;11958;50.836;4.438;2023-07-20T13:20:10;24.00;41.00
23560;DHT22;11958;50.836;4.438;2023-07-20T13:22:39;23.30;45.10
23560;DHT22;11958;50.836;4.438;2023-07-20T13:25:05;23.20;45.90
23560;DHT22;11958;50.836;4.438;2023-07-20T13:27:32;23.10;46.60
23560;DHT22;11958;50.836;4.438;2023-07-20T13:30:01;22.90;49.10
23560;DHT22;11958;50.836;4.438;2023-07-20T13:32:27;22.90;51.40
23560;DHT22;11958;50.836;4.438;2023-07-20T13:34:53;22.90;52.40
23560;DHT22;11958;50.836;4.438;2023-07-20T13:37:18;22.60;53.10
23560;DHT22;11958;50.836;4.438;2023-07-20T13:39:44;22.50;53.70
23560;DHT22;11958;50.836;4.438;2023-07-20T13:42:11;22.50;53.30
23560;DHT22;11958;50.836;4.438;2023-07-20T13:44:38;22.60;53.60
23560;DHT22;11958;50.836;4.438;2023-07-20T13:47:04;22.30;50.30
23560;DHT22;11958;50.836;4.438;2023-07-20T13:49:33;22.30;50.90
23560;DHT22;11958;50.836;4.438;2023-07-20T13:51:59;22.50;50.10
23560;DHT22;11958;50.836;4.438;2023-07-20T13:54:25;22.70;49.40
23560;DHT22;11958;50.836;4.438;2023-07-20T13:56:51;23.00;49.30
23560;DHT22;11958;50.836;4.438;2023-07-20T13:59:17;23.10;46.70
23560;DHT22;11958;50.836;4.438;2023-07-20T14:01:43;23.00;46.30
23560;DHT22;11958;50.836;4.438;2023-07-20T14:04:09;23.10;46.70
23560;DHT22;11958;50.836;4.438;2023-07-20T14:06:35;23.30;46.30
23560;DHT22;11958;50.836;4.438;2023-07-20T14:09:01;23.20;47.10
23560;DHT22;11958;50.836;4.438;2023-07-20T14:11:27;23.40;46.90
23560;DHT22;11958;50.836;4.438;2023-07-20T14:13:59;23.50;46.00
23560;DHT22;11958;50.836;4.438;2023-07-20T14:16:27;23.40;45.20
23560;DHT22;11958;50.836;4.438;2023-07-20T14:18:53;23.50;45.60
23560;DHT22;11958;50.836;4.438;2023-07-20T14:21:20;23.60;44.20
23560;DHT22;11958;50.836;4.438;2023-07-20T14:23:47;23.90;43.10
23560;DHT22;11958;50.836;4.438;2023-07-20T14:26:14;24.90;41.10
23560;DHT22;11958;50.836;4.438;2023-07-20T14:28:39;26.20;38.30
23560;DHT22;11958;50.836;4.438;2023-07-20T14:31:11;27.50;35.90
23560;DHT22;11958;50.836;4.438;2023-07-20T14:33:37;27.90;34.60
23560;DHT22;11958;50.836;4.438;2023-07-20T14:36:03;28.50;32.80
23560;DHT22;11958;50.836;4.438;2023-07-20T14:38:31;29.00;32.90
23560;DHT22;11958;50.836;4.438;2023-07-20T14:40:57;28.50;31.70
23560;DHT22;11958;50.836;4.438;2023-07-20T14:43:26;28.20;31.60
23560;DHT22;11958;50.836;4.438;2023-07-20T14:45:51;28.10;31.30
23560;DHT22;11958;50.836;4.438;2023-07-20T14:48:20;27.80;31.90
23560;DHT22;11958;50.836;4.438;2023-07-20T14:50:49;28.40;32.40
23560;DHT22;11958;50.836;4.438;2023-07-20T14:53:17;29.10;31.30
23560;DHT22;11958;50.836;4.438;2023-07-20T14:55:52;29.50;30.70
23560;DHT22;11958;50.836;4.438;2023-07-20T14:58:23;29.60;29.90
23560;DHT22;11958;50.836;4.438;2023-07-20T15:00:58;30.50;29.30
23560;DHT22;11958;50.836;4.438;2023-07-20T15:03:25;30.40;28.20
23560;DHT22;11958;50.836;4.438;2023-07-20T15:05:51;29.00;30.90
23560;DHT22;11958;50.836;4.438;2023-07-20T15:08:30;28.20;31.10
23560;DHT22;11958;50.836;4.438;2023-07-20T15:11:01;27.10;33.40
23560;DHT22;11958;50.836;4.438;2023-07-20T15:13:33;26.50;35.50
23560;DHT22;11958;50.836;4.438;2023-07-20T15:15:59;25.40;37.50
23560;DHT22;11958;50.836;4.438;2023-07-20T15:18:24;25.10;38.60
23560;DHT22;11958;50.836;4.438;2023-07-20T15:20:53;24.80;38.60
23560;DHT22;11958;50.836;4.438;2023-07-20T15:23:37;24.70;38.70
23560;DHT22;11958;50.836;4.438;2023-07-20T15:26:03;24.10;39.80
23560;DHT22;11958;50.836;4.438;2023-07-20T15:28:29;23.80;40.90
23560;DHT22;11958;50.836;4.438;2023-07-20T15:31:02;23.40;43.30
23560;DHT22;11958;50.836;4.438;2023-07-20T15:33:28;23.40;44.10
23560;DHT22;11958;50.836;4.438;2023-07-20T15:36:06;23.10;43.50
23560;DHT22;11958;50.836;4.438;2023-07-20T15:38:38;22.70;43.40
23560;DHT22;11958;50.836;4.438;2023-07-20T15:41:04;22.50;44.90
23560;DHT22;11958;50.836;4.438;2023-07-20T15:43:30;22.40;45.50
23560;DHT22;11958;50.836;4.438;2023-07-20T15:48:48;22.20;48.40
23560;DHT22;11958;50.836;4.438;2023-07-20T15:51:13;22.10;49.50
23560;DHT22;11958;50.836;4.438;2023-07-20T15:54:04;21.90;53.10
23560;DHT22;11958;50.836;4.438;2023-07-20T15:56:40;21.70;53.10
23560;DHT22;11958;50.836;4.438;2023-07-20T15:59:16;21.50;56.10
23560;DHT22;11958;50.836;4.438;2023-07-20T16:01:44;20.80;63.70
23560;DHT22;11958;50.836;4.438;2023-07-20T16:04:18;19.80;69.60
23560;DHT22;11958;50.836;4.438;2023-07-20T16:06:47;19.10;73.90
23560;DHT22;11958;50.836;4.438;2023-07-20T16:09:23;18.40;76.30
23560;DHT22;11958;50.836;4.438;2023-07-20T16:11:51;18.30;78.00
23560;DHT22;11958;50.836;4.438;2023-07-20T16:14:17;18.20;80.40
23560;DHT22;11958;50.836;4.438;2023-07-20T16:16:43;18.40;80.40
23560;DHT22;11958;50.836;4.438;2023-07-20T16:19:09;18.50;79.20
23560;DHT22;11958;50.836;4.438;2023-07-20T16:21:34;18.30;79.10
23560;DHT22;11958;50.836;4.438;2023-07-20T16:24:00;18.30;79.70
23560;DHT22;11958;50.836;4.438;2023-07-20T16:26:26;17.80;82.80
23560;DHT22;11958;50.836;4.438;2023-07-20T16:28:52;17.60;83.50
23560;DHT22;11958;50.836;4.438;2023-07-20T16:31:17;17.40;83.90
23560;DHT22;11958;50.836;4.438;2023-07-20T16:33:44;17.40;84.90
23560;DHT22;11958;50.836;4.438;2023-07-20T16:36:10;17.10;84.40
23560;DHT22;11958;50.836;4.438;2023-07-20T16:38:38;17.00;84.80
23560;DHT22;11958;50.836;4.438;2023-07-20T16:41:06;17.10;85.30
23560;DHT22;11958;50.836;4.438;2023-07-20T16:43:55;17.10;85.20
23560;DHT22;11958;50.836;4.438;2023-07-20T16:49:15;17.30;85.90
23560;DHT22;11958;50.836;4.438;2023-07-20T16:51:41;17.30;86.70
23560;DHT22;11958;50.836;4.438;2023-07-20T16:54:06;17.50;87.30
23560;DHT22;11958;50.836;4.438;2023-07-20T16:56:33;17.80;87.10
23560;DHT22;11958;50.836;4.438;2023-07-20T16:58:58;17.90;87.50
23560;DHT22;11958;50.836;4.438;2023-07-20T17:01:26;18.10;85.50
23560;DHT22;11958;50.836;4.438;2023-07-20T17:03:55;18.00;84.10
23560;DHT22;11958;50.836;4.438;2023-07-20T17:06:21;18.00;84.60
23560;DHT22;11958;50.836;4.438;2023-07-20T17:08:46;18.00;84.00
23560;DHT22;11958;50.836;4.438;2023-07-20T17:11:12;18.00;84.40
23560;DHT22;11958;50.836;4.438;2023-07-20T17:13:46;18.10;83.90
23560;DHT22;11958;50.836;4.438;2023-07-20T17:16:31;17.90;85.00
23560;DHT22;11958;50.836;4.438;2023-07-20T17:19:03;17.90;86.10
23560;DHT22;11958;50.836;4.438;2023-07-20T17:21:29;17.90;84.80
23560;DHT22;11958;50.836;4.438;2023-07-20T17:35:57;19.10;81.30
23560;DHT22;11958;50.836;4.438;2023-07-20T17:40:59;19.30;79.90
23560;DHT22;11958;50.836;4.438;2023-07-20T17:43:40;19.10;78.80
23560;DHT22;11958;50.836;4.438;2023-07-20T17:46:15;19.10;80.10
23560;DHT22;11958;50.836;4.438;2023-07-20T17:48:41;19.00;80.60
23560;DHT22;11958;50.836;4.438;2023-07-20T17:51:09;18.80;81.20
23560;DHT22;11958;50.836;4.438;2023-07-20T17:53:35;18.80;80.60
23560;DHT22;11958;50.836;4.438;2023-07-20T17:56:12;19.00;80.00
23560;DHT22;11958;50.836;4.438;2023-07-20T17:58:38;19.10;80.20
23560;DHT22;11958;50.836;4.438;2023-07-20T18:01:04;19.10;81.10
23560;DHT22;11958;50.836;4.438;2023-07-20T18:03:29;19.00;81.30
23560;DHT22;11958;50.836;4.438;2023-07-20T18:06:07;19.40;80.30
23560;DHT22;11958;50.836;4.438;2023-07-20T18:08:34;19.30;80.20
23560;DHT22;11958;50.836;4.438;2023-07-20T18:11:04;19.20;79.70
23560;DHT22;11958;50.836;4.438;2023-07-20T18:13:30;19.10;80.20
23560;DHT22;11958;50.836;4.438;2023-07-20T18:15:56;19.00;80.70
23560;DHT22;11958;50.836;4.438;2023-07-20T18:18:22;18.80;81.90
23560;DHT22;11958;50.836;4.438;2023-07-20T18:20:48;18.80;81.30
23560;DHT22;11958;50.836;4.438;2023-07-20T18:23:13;19.00;81.70
23560;DHT22;11958;50.836;4.438;2023-07-20T18:25:42;19.00;80.80
23560;DHT22;11958;50.836;4.438;2023-07-20T18:28:08;19.00;80.80
23560;DHT22;11958;50.836;4.438;2023-07-20T18:30:34;18.70;81.50
23560;DHT22;11958;50.836;4.438;2023-07-20T18:33:00;18.70;82.00
23560;DHT22;11958;50.836;4.438;2023-07-20T18:35:26;18.60;82.50
23560;DHT22;11958;50.836;4.438;2023-07-20T18:37:59;18.90;81.20
23560;DHT22;11958;50.836;4.438;2023-07-20T18:40:25;19.10;79.60
23560;DHT22;11958;50.836;4.438;2023-07-20T18:42:53;19.20;80.20
23560;DHT22;11958;50.836;4.438;2023-07-20T18:45:18;18.90;80.90
23560;DHT22;11958;50.836;4.438;2023-07-20T18:47:44;18.80;80.80
23560;DHT22;11958;50.836;4.438;2023-07-20T18:50:13;18.90;80.80
23560;DHT22;11958;50.836;4.438;2023-07-20T18:52:39;18.80;80.90
23560;DHT22;11958;50.836;4.438;2023-07-20T18:55:05;18.80;81.20
23560;DHT22;11958;50.836;4.438;2023-07-20T18:57:31;18.70;80.80
23560;DHT22;11958;50.836;4.438;2023-07-20T18:59:57;18.60;81.50
23560;DHT22;11958;50.836;4.438;2023-07-20T19:02:44;18.60;81.90
23560;DHT22;11958;50.836;4.438;2023-07-20T19:05:23;18.50;82.10
23560;DHT22;11958;50.836;4.438;2023-07-20T19:07:49;18.50;82.10
23560;DHT22;11958;50.836;4.438;2023-07-20T19:10:25;18.60;82.00
23560;DHT22;11958;50.836;4.438;2023-07-20T19:13:01;18.50;82.10
23560;DHT22;11958;50.836;4.438;2023-07-20T19:15:27;18.30;81.80
23560;DHT22;11958;50.836;4.438;2023-07-20T19:17:52;18.40;81.60
23560;DHT22;11958;50.836;4.438;2023-07-20T19:20:18;18.40;81.80
23560;DHT22;11958;50.836;4.438;2023-07-20T19:22:47;18.20;82.10
23560;DHT22;11958;50.836;4.438;2023-07-20T19:25:21;18.10;83.10
23560;DHT22;11958;50.836;4.438;2023-07-20T19:27:54;18.10;83.40
23560;DHT22;11958;50.836;4.438;2023-07-20T19:30:22;18.10;83.30
23560;DHT22;11958;50.836;4.438;2023-07-20T19:32:50;18.10;83.10
23560;DHT22;11958;50.836;4.438;2023-07-20T19:35:16;17.90;83.20
23560;DHT22;11958;50.836;4.438;2023-07-20T19:37:45;17.30;84.70
23560;DHT22;11958;50.836;4.438;2023-07-20T19:40:11;17.00;86.10
23560;DHT22;11958;50.836;4.438;2023-07-20T19:42:37;17.00;86.90
23560;DHT22;11958;50.836;4.438;2023-07-20T19:45:08;17.40;85.50
23560;DHT22;11958;50.836;4.438;2023-07-20T19:47:37;17.30;85.80
23560;DHT22;11958;50.836;4.438;2023-07-20T19:50:02;17.50;85.40
23560;DHT22;11958;50.836;4.438;2023-07-20T19:52:30;17.80;84.60
23560;DHT22;11958;50.836;4.438;2023-07-20T19:54:56;17.70;84.50
23560;DHT22;11958;50.836;4.438;2023-07-20T19:57:24;17.40;85.60
23560;DHT22;11958;50.836;4.438;2023-07-20T19:59:50;17.50;85.50
23560;DHT22;11958;50.836;4.438;2023-07-20T20:02:16;17.50;85.30
23560;DHT22;11958;50.836;4.438;2023-07-20T20:04:42;17.40;86.20
23560;DHT22;11958;50.836;4.438;2023-07-20T20:07:08;17.20;86.60
23560;DHT22;11958;50.836;4.438;2023-07-20T20:09:38;17.10;87.30
23560;DHT22;11958;50.836;4.438;2023-07-20T20:12:07;17.30;86.70
23560;DHT22;11958;50.836;4.438;2023-07-20T20:14:47;17.70;85.90
23560;DHT22;11958;50.836;4.438;2023-07-20T20:17:26;17.50;85.80
23560;DHT22;11958;50.836;4.438;2023-07-20T20:19:52;17.20;87.10
23560;DHT22;11958;50.836;4.438;2023-07-20T20:22:18;17.40;87.40
23560;DHT22;11958;50.836;4.438;2023-07-20T20:24:44;17.60;86.80
23560;DHT22;11958;50.836;4.438;2023-07-20T20:27:10;17.40;86.60
23560;DHT22;11958;50.836;4.438;2023-07-20T20:29:36;17.60;87.10
23560;DHT22;11958;50.836;4.438;2023-07-20T20:32:24;17.60;87.00
23560;DHT22;11958;50.836;4.438;2023-07-20T20:34:51;17.40;87.00
23560;DHT22;11958;50.836;4.438;2023-07-20T20:37:19;17.30;87.30
23560;DHT22;11958;50.836;4.438;2023-07-20T20:39:50;17.10;87.70
23560;DHT22;11958;50.836;4.438;2023-07-20T20:42:17;17.20;88.00
23560;DHT22;11958;50.836;4.438;2023-07-20T20:44:43;17.30;87.70
23560;DHT22;11958;50.836;4.438;2023-07-20T20:47:48;17.30;87.10
23560;DHT22;11958;50.836;4.438;2023-07-20T20:50:15;17.60;87.10
23560;DHT22;11958;50.836;4.438;2023-07-20T20:52:47;17.30;87.20
23560;DHT22;11958;50.836;4.438;2023-07-20T20:55:22;17.20;87.20
23560;DHT22;11958;50.836;4.438;2023-07-20T20:58:00;17.20;87.10
23560;DHT22;11958;50.836;4.438;2023-07-20T21:00:26;17.20;86.20
23560;DHT22;11958;50.836;4.438;2023-07-20T21:02:52;16.90;87.40
23560;DHT22;11958;50.836;4.438;2023-07-20T21:05:18;16.70;87.70
23560;DHT22;11958;50.836;4.438;2023-07-20T21:07:44;16.80;87.80
23560;DHT22;11958;50.836;4.438;2023-07-20T21:10:10;16.60;89.30
23560;DHT22;11958;50.836;4.438;2023-07-20T21:12:36;16.40;89.40
23560;DHT22;11958;50.836;4.438;2023-07-20T21:15:05;16.50;89.90
23560;DHT22;11958;50.836;4.438;2023-07-20T21:17:32;16.80;88.60
23560;DHT22;11958;50.836;4.438;2023-07-20T21:20:01;17.10;86.90
23560;DHT22;11958;50.836;4.438;2023-07-20T21:22:27;17.20;86.00
23560;DHT22;11958;50.836;4.438;2023-07-20T21:27:36;16.50;88.30
23560;DHT22;11958;50.836;4.438;2023-07-20T21:30:02;16.70;88.60
23560;DHT22;11958;50.836;4.438;2023-07-20T21:32:36;16.90;87.50
23560;DHT22;11958;50.836;4.438;2023-07-20T21:35:03;16.70;87.00
23560;DHT22;11958;50.836;4.438;2023-07-20T21:37:34;16.70;87.50
23560;DHT22;11958;50.836;4.438;2023-07-20T21:40:06;16.60;87.60
23560;DHT22;11958;50.836;4.438;2023-07-20T21:42:32;16.50;88.10
23560;DHT22;11958;50.836;4.438;2023-07-20T21:44:57;16.40;89.30
23560;DHT22;11958;50.836;4.438;2023-07-20T21:47:29;16.50;88.60
23560;DHT22;11958;50.836;4.438;2023-07-20T21:49:58;16.60;88.00
23560;DHT22;11958;50.836;4.438;2023-07-20T21:52:27;16.40;87.90
23560;DHT22;11958;50.836;4.438;2023-07-20T21:54:59;16.50;88.30
23560;DHT22;11958;50.836;4.438;2023-07-20T21:57:31;16.70;87.90
23560;DHT22;11958;50.836;4.438;2023-07-20T21:59:57;16.80;86.70
23560;DHT22;11958;50.836;4.438;2023-07-20T22:02:22;16.80;86.50
23560;DHT22;11958;50.836;4.438;2023-07-20T22:04:57;16.70;87.00
23560;DHT22;11958;50.836;4.438;2023-07-20T22:07:23;16.90;86.90
23560;DHT22;11958;50.836;4.438;2023-07-20T22:09:49;16.70;87.10
23560;DHT22;11958;50.836;4.438;2023-07-20T22:12:20;16.90;87.00
23560;DHT22;11958;50.836;4.438;2023-07-20T22:14:49;16.70;86.70
23560;DHT22;11958;50.836;4.438;2023-07-20T22:17:15;16.40;87.70
23560;DHT22;11958;50.836;4.438;2023-07-20T22:19:42;16.60;87.50
23560;DHT22;11958;50.836;4.438;2023-07-20T22:22:20;16.70;86.80
23560;DHT22;11958;50.836;4.438;2023-07-20T22:24:45;16.60;87.50
23560;DHT22;11958;50.836;4.438;2023-07-20T22:27:11;16.40;87.20
23560;DHT22;11958;50.836;4.438;2023-07-20T22:29:37;16.70;86.90
23560;DHT22;11958;50.836;4.438;2023-07-20T22:32:03;16.50;87.00
23560;DHT22;11958;50.836;4.438;2023-07-20T22:34:29;16.50;87.30
23560;DHT22;11958;50.836;4.438;2023-07-20T22:37:01;16.50;87.10
23560;DHT22;11958;50.836;4.438;2023-07-20T22:39:28;16.50;87.20
23560;DHT22;11958;50.836;4.438;2023-07-20T22:42:01;16.60;87.00
23560;DHT22;11958;50.836;4.438;2023-07-20T22:44:27;16.30;87.30
23560;DHT22;11958;50.836;4.438;2023-07-20T22:46:53;16.10;88.30
23560;DHT22;11958;50.836;4.438;2023-07-20T22:49:19;16.40;88.10
23560;DHT22;11958;50.836;4.438;2023-07-20T22:51:45;16.30;87.40
23560;DHT22;11958;50.836;4.438;2023-07-20T22:54:12;15.90;88.50
23560;DHT22;11958;50.836;4.438;2023-07-20T22:56:37;15.90;89.20
23560;DHT22;11958;50.836;4.438;2023-07-20T22:59:03;16.00;88.80
23560;DHT22;11958;50.836;4.438;2023-07-20T23:01:30;16.30;87.40